Maljamar, NM (88264)

10:58 AM MDT on July 29, 2014 (GMT -0600)
Derrick Ranch (KNMLOVIN5) Elev 4072 ft | 32.93 °N, 103.52 °W | Change Station

Current weather conditions updated 41 seconds ago

Scattered Clouds
Scattered Clouds
73.3 °F
Feels Like 75 °F
N
6.0
Wind Variable Wind from North
Gusts 22.0 mph

Today is forecast to be Warmer than yesterday.

Today
High -- | Low -- °F
--% Chance of Precip.
Yesterday
High -- | Low -- °F
Precip. -- in
6:06 AM 7:55 PM
Waxing Crescent, 7% visible
Pressure 30.27 in
Visibility 10.0 miles
Clouds Scattered Clouds 10000 ft
Heat Index 75 °F
Dew Point 63 °F
Humidity 70%
Rainfall 0.00 in
Snow Depth Not available.
UV 8 out of 12
Pollen 5.10 out of 12
Air Quality Not available.
Flu Activity Not available.
METAR KHOB 291650Z 06006KT 10SM SCT100 24/15 A3027

More Conditions Fewer Conditions

Pressure 30.27 in
Visibility 10.0 miles
Clouds Scattered Clouds 10000 ft
Heat Index 75 °F
Dew Point 63 °F
Humidity 70%
Rainfall 0.00 in
Snow Depth Not available.
UV 8 out of 12
Pollen 5.10 out of 12
Air Quality Not available.
Flu Activity Not available.
METAR KHOB 291650Z 06006KT 10SM SCT100 24/15 A3027

More Conditions Fewer Conditions

10-Day Weather Forecast

Almanac

Astronomy

Jul. 29, 2014 Rise Set
Actual Time 6:06 AM MDT 7:55 PM MDT
Civil Twilight 5:39 AM MDT 8:22 PM MDT
Nautical Twilight 5:06 AM MDT 8:55 PM MDT
Astronomical Twilight 4:32 AM MDT 9:30 PM MDT
Moon 8:34 AM MDT 9:22 PM MDT
Length of Visible Light 14h 43m
Length of Day
13h 49m
Tomorrow will be 1m 27s shorter.
Waxing Crescent, 7% of the Moon is Illuminated
Today
Waxing Crescent
Aug 3
First Quarter
Aug 10
Full
Aug 17
Last Quarter
Aug 25
New

Today's Extremes

State Highs State Lows

Community

WunderPhotos

Upload Photos

1,738,783 photos uploaded!

Nearby

Snow Depth

Station Depth Elevation
Sierra Blanca 1 in 10280 ft
Wesner Springs 2 in 11120 ft
Elk Cabin 112 in 8210 ft
Santa Fe 1 in 11445 ft
Gallegos Peak 0 in 9800 ft

Earthquake Activity

City Distance Mag. Time & Date
No recent earthquake activity has been reported nearby.
Minimum magnitude displayed is 2.5.

Coastal Water Temperatures

Place Temperature
No Stations Reporting

Nearby Weather Stations

Station Location Temp. Heat Index Dew Point Humidity Wind Precip. Elev Updated Type
RAWS CAPROCK NM, Maljamar, NM 73 °F 76 °F 38 °F 28% ENE  at  15 mph 0.00 in / hr 4209 ft 9:40 AM MDT MADIS
Derrick Ranch, Lovington, NM 73.3 °F 75 °F 63 °F 70% North  at  6.0 mph 0.00 in / hr 4072 ft 10:58 AM MDT Normal
Sixth Grade Academy, Lovington, NM 72.1 °F 74 °F 63 °F 72% ENE  at  0.0 mph - / hr 3934 ft 10:12 AM MDT Normal

Show More Stations Show Fewer Stations